Preview of NWS' New Version of Forecast
This preview is not operational and should not be used for support decisions.

Terminal Aerodrome Forecast (TAF)

Issued by National Weather Service (NWS)

                            
639 
FTUS42 KKEY 272105 AAB
TAFEYW
TAF AMD
KEYW 272105Z 2721/2818 16015G21KT P6SM VCSH FEW018 SCT025 BKN090
      TEMPO 2722/2802 18016G28KT 2SM +TSRA BKN020CB OVC035
     FM280800 18014G23KT P6SM -SHRA VCTS SCT020CB
      TEMPO 2808/2812 18020G30KT 2SM +TSRA BKN020CB OVC035=